Time;durP1;ratioP1;P1;durP2;ratioP2;P2;SDS_P1;SDS_P2;PMS_P1;PMS_P2;Temp;Humidity;BMP_temperature;BMP_pressure;BME280_temperature;BME280_humidity;BME280_pressure;Samples;Min_cycle;Max_cycle;Signal;HPM_P1;HPM_P2
2021/12/06 00:01:19;;;;;;;49.55;25.08;;;;;;;-144.19;97.13;77551.72;5004854;28;20061;-90
2021/12/06 00:04:07;;;;;;;48.83;24.25;;;;;;;-144.19;97.31;77551.72;5004401;28;20539;-90
2021/12/06 00:06:38;;;;;;;46.88;24.67;;;;;;;-144.19;97.27;77553.72;5002820;28;20508;-90
2021/12/06 00:09:08;;;;;;;48.28;23.70;;;;;;;-144.19;96.60;77563.56;5002086;28;20056;-90
2021/12/06 00:11:35;;;;;;;49.35;23.27;;;;;;;-144.19;97.08;77563.56;5002876;28;20050;-91
2021/12/06 00:14:03;;;;;;;48.35;25.25;;;;;;;-144.19;96.97;77561.59;5003314;28;20045;-89
2021/12/06 00:16:42;;;;;;;60.58;25.75;;;;;;;-144.19;97.29;77555.69;5003373;28;20492;-89
2021/12/06 00:19:09;;;;;;;47.20;24.48;;;;;;;-144.19;97.40;77559.63;5036897;28;20053;-88
2021/12/06 00:21:35;;;;;;;56.37;25.47;;;;;;;-144.19;97.37;77563.56;5019903;28;20050;-89
2021/12/06 00:24:02;;;;;;;50.63;23.15;;;;;;;-144.19;97.16;77567.50;5034861;28;20277;-89
2021/12/06 00:26:28;;;;;;;50.75;23.98;;;;;;;-144.19;97.42;77553.72;5018342;28;20542;-91
2021/12/06 00:28:58;;;;;;;48.67;24.83;;;;;;;-144.19;97.13;77559.63;5018340;28;20053;-91
2021/12/06 00:31:31;;;;;;;46.17;23.45;;;;;;;-144.19;97.04;77567.50;5019050;28;20100;-89
2021/12/06 00:34:01;;;;;;;49.13;23.75;;;;;;;-144.19;96.89;77571.44;5018665;28;20500;-88
2021/12/06 00:36:31;;;;;;;54.75;25.17;;;;;;;-144.19;97.09;77573.41;5017360;28;20050;-90
2021/12/06 00:38:59;;;;;;;50.60;24.65;;;;;;;-144.19;97.26;77571.44;5002280;28;20056;-90
2021/12/06 00:41:25;;;;;;;51.75;24.40;;;;;;;-144.19;97.39;77571.44;5003126;28;20057;-91
2021/12/06 00:43:52;;;;;;;49.08;25.23;;;;;;;-144.19;97.13;77579.31;5020995;28;20046;-89
2021/12/06 00:46:19;;;;;;;55.22;24.65;;;;;;;-144.19;97.23;77587.19;5002741;28;20462;-91
2021/12/06 00:48:46;;;;;;;52.58;24.88;;;;;;;-144.19;97.57;77591.13;5020556;28;20076;-89
2021/12/06 00:51:15;;;;;;;46.50;24.27;;;;;;;-144.19;97.76;77587.19;5036032;28;20060;-90
2021/12/06 00:53:42;;;;;;;46.13;23.20;;;;;;;-144.19;97.65;77595.06;5004417;28;20052;-89
2021/12/06 00:56:09;;;;;;;55.78;27.33;;;;;;;-144.19;97.50;77591.13;5020799;28;20067;-91
2021/12/06 00:58:36;;;;;;;47.35;24.48;;;;;;;-144.19;97.94;77591.13;5023801;28;20057;-88
2021/12/06 01:01:04;;;;;;;46.77;23.53;;;;;;;-144.19;97.79;77587.19;5021616;28;20059;-89
2021/12/06 01:03:33;;;;;;;54.63;26.13;;;;;;;-144.19;97.86;77602.94;5021659;28;20367;-89
2021/12/06 01:06:01;;;;;;;58.13;27.27;;;;;;;-144.19;97.85;77602.94;5022369;28;20190;-89
2021/12/06 01:08:27;;;;;;;55.88;25.42;;;;;;;-144.19;97.89;77602.94;5040378;28;20065;-88
2021/12/06 01:10:54;;;;;;;49.03;24.73;;;;;;;-144.19;97.84;77599.00;5020918;28;20053;-87
2021/12/06 01:13:21;;;;;;;53.05;24.10;;;;;;;-144.19;98.20;77595.06;5038108;28;20050;-87
2021/12/06 01:15:48;;;;;;;;;;;;;;;-144.19;98.14;77599.00;5020988;28;20072;-89
2021/12/06 01:18:16;;;;;;;50.00;23.00;;;;;;;-144.19;98.23;77606.88;5020882;28;20286;-88
2021/12/06 01:20:56;;;;;;;54.20;24.17;;;;;;;-144.19;98.44;77591.13;5038857;28;20053;-89
2021/12/06 01:23:28;;;;;;;53.00;23.95;;;;;;;-144.19;98.28;77595.06;5021608;28;20101;-90
2021/12/06 01:31:19;;;;;;;49.55;22.95;;;;;;;-144.19;98.44;77614.75;5039102;28;20049;-89
2021/12/06 01:39:18;;;;;;;46.60;21.38;;;;;;;-144.19;98.18;77618.69;5038132;28;20064;-88
2021/12/06 01:42:00;;;;;;;49.30;22.05;;;;;;;-144.19;98.33;77624.59;5023093;28;20057;-88
2021/12/06 01:44:54;;;;;;;35.67;19.20;;;;;;;-144.19;98.42;77646.25;5022014;28;20074;-88
2021/12/06 01:47:41;;;;;;;36.17;18.10;;;;;;;-144.19;98.07;77654.13;5017820;28;20058;-88
2021/12/06 01:50:23;;;;;;;35.33;17.40;;;;;;;-144.19;98.34;77662.00;5021847;28;20053;-90
2021/12/06 01:52:55;;;;;;;35.80;18.38;;;;;;;-144.19;98.46;77663.97;5020271;28;20045;-89
2021/12/06 01:55:26;;;;;;;40.67;18.90;;;;;;;-144.19;98.73;77665.94;5010730;28;20057;-90
2021/12/06 01:57:55;;;;;;;38.00;17.45;;;;;;;-144.19;98.69;77665.94;5001691;28;20072;-89
2021/12/06 02:00:36;;;;;;;42.15;20.08;;;;;;;-144.19;98.60;77665.94;5002004;28;20053;-89
2021/12/06 02:03:03;;;;;;;38.08;17.98;;;;;;;-144.19;98.73;77669.88;5000004;28;20073;-88
2021/12/06 02:05:30;;;;;;;;;;;;;;;-144.19;98.78;77669.88;5019887;28;20137;-86
2021/12/06 02:07:58;;;;;;;42.28;17.63;;;;;;;-144.19;98.97;77673.81;4999197;28;20433;-88
2021/12/06 02:10:24;;;;;;;;;;;;;;;-144.19;98.79;77677.75;5001454;28;20060;-88
2021/12/06 02:12:53;;;;;;;38.47;16.70;;;;;;;-144.19;98.38;77689.56;5001571;28;21819;-88
2021/12/06 02:18:05;;;;;;;40.80;18.20;;;;;;;-144.19;98.67;77689.56;5018292;28;20054;-89
2021/12/06 02:20:37;;;;;;;42.28;18.55;;;;;;;-144.19;98.87;77687.59;5002238;28;20054;-88
2021/12/06 02:23:04;;;;;;;40.97;19.35;;;;;;;-144.19;98.73;77693.50;5019467;28;20500;-88
2021/12/06 02:25:30;;;;;;;;;;;;;;;-144.19;98.65;77691.53;5001888;28;20133;-88
2021/12/06 02:27:57;;;;;;;39.08;17.67;;;;;;;-144.19;98.55;77701.38;5001380;28;19921;-90
2021/12/06 02:30:23;;;;;;;34.83;18.17;;;;;;;-144.19;98.74;77703.34;5001642;28;20046;-87
2021/12/06 02:32:51;;;;;;;37.38;18.05;;;;;;;-144.19;99.03;77693.50;5000515;28;20056;-90
2021/12/06 02:35:21;;;;;;;36.72;18.50;;;;;;;-144.19;98.79;77691.53;5001741;28;20068;-88
2021/12/06 02:37:49;;;;;;;38.45;18.50;;;;;;;-144.19;98.87;77701.38;5001238;28;20045;-89
2021/12/06 02:40:24;;;;;;;40.50;17.90;;;;;;;-144.19;98.85;77701.38;5001401;28;20053;-91
2021/12/06 02:42:52;;;;;;;41.13;17.95;;;;;;;-144.19;98.64;77707.28;5001346;28;20046;-89
2021/12/06 02:45:21;;;;;;;38.53;18.25;;;;;;;-144.19;98.88;77709.25;5018378;28;20136;-88
2021/12/06 02:47:53;;;;;;;32.83;16.52;;;;;;;-144.19;98.86;77725.00;5016327;28;20056;-90
2021/12/06 02:50:23;;;;;;;33.72;16.77;;;;;;;-144.19;98.83;77730.91;5016813;28;20069;-89
2021/12/06 02:52:50;;;;;;;36.22;17.45;;;;;;;-144.19;98.99;77721.06;5016767;28;20053;-86
2021/12/06 02:58:43;;;;;;;33.85;16.55;;;;;;;-144.19;98.94;77713.19;5024774;28;20057;-87
2021/12/06 03:01:22;;;;;;;32.50;17.23;;;;;;;-144.19;98.35;77728.94;5037878;28;20147;-88
2021/12/06 03:03:48;;;;;;;28.10;15.55;;;;;;;-144.19;98.36;77728.94;5020365;28;20194;-90
2021/12/06 03:06:15;;;;;;;35.17;17.70;;;;;;;-144.19;98.82;77732.88;5036657;28;20412;-89
2021/12/06 03:08:59;;;;;;;29.13;15.35;;;;;;;-144.19;98.70;77750.59;5021161;28;20045;-89
2021/12/06 03:11:30;;;;;;;33.78;15.73;;;;;;;-144.19;98.81;77752.56;5020591;28;20056;-90
2021/12/06 03:13:57;;;;;;;37.38;16.88;;;;;;;-144.19;98.66;77758.47;5019421;28;20053;-90
2021/12/06 03:16:24;;;;;;;39.33;17.70;;;;;;;-144.19;98.54;77774.22;5020102;28;20057;-88
2021/12/06 03:18:52;;;;;;;33.30;17.73;;;;;;;-144.19;98.54;77776.19;5020046;28;20049;-89
2021/12/06 03:21:21;;;;;;;36.35;17.35;;;;;;;-144.19;98.75;77768.31;5020209;28;20054;-89
2021/12/06 03:23:48;;;;;;;35.78;17.40;;;;;;;-144.19;98.75;77780.13;5035649;28;20050;-89
2021/12/06 03:26:14;;;;;;;;;;;;;;;-144.19;98.51;77784.06;5020303;28;20049;-87
2021/12/06 03:28:43;;;;;;;34.78;17.25;;;;;;;-144.19;98.57;77770.28;5019751;28;19927;-91
2021/12/06 03:31:10;;;;;;;38.40;17.85;;;;;;;-144.19;98.77;77770.28;5019600;28;20060;-88
2021/12/06 03:33:40;;;;;;;42.30;17.92;;;;;;;-144.19;98.75;77770.28;5036286;28;20053;-89
2021/12/06 03:36:08;;;;;;;33.05;17.42;;;;;;;-144.19;98.60;77788.00;5000313;28;20054;-88
2021/12/06 03:38:36;;;;;;;36.22;17.88;;;;;;;-144.19;98.63;77788.00;4999306;28;20054;-88
2021/12/06 03:41:04;;;;;;;33.63;18.48;;;;;;;-144.19;98.74;77786.03;4998610;28;20049;-89
2021/12/06 03:43:31;;;;;;;37.70;18.40;;;;;;;-144.19;98.64;77793.91;4998867;28;20046;-87
2021/12/06 03:45:59;;;;;;;40.28;18.38;;;;;;;-144.19;98.75;77795.88;5015792;28;20054;-88
2021/12/06 03:48:26;;;;;;;42.03;18.70;;;;;;;-144.19;99.11;77780.13;4998358;28;20476;-90
2021/12/06 03:50:52;;;;;;;38.60;18.67;;;;;;;-144.19;98.90;77788.00;5016205;28;20492;-89
2021/12/06 03:53:19;;;;;;;43.63;18.77;;;;;;;-144.19;99.14;77793.91;4999102;28;20428;-87
2021/12/06 03:55:45;;;;;;;38.63;19.98;;;;;;;-144.19;99.24;77764.38;5014339;28;20083;-89
2021/12/06 03:58:12;;;;;;;37.50;17.50;;;;;;;-144.19;98.80;77797.84;5019034;28;20060;-88
2021/12/06 04:00:39;;;;;;;38.67;18.07;;;;;;;-144.19;98.67;77795.88;5018636;28;20053;-88
2021/12/06 04:03:06;;;;;;;;;;;;;;;-144.19;98.91;77815.56;5022923;28;20049;-87
2021/12/06 04:05:33;;;;;;;36.00;17.25;;;;;;;-144.19;99.02;77803.75;5039148;28;19975;-88
2021/12/06 04:07:59;;;;;;;34.28;17.98;;;;;;;-144.19;98.81;77805.72;5021863;28;20051;-89
2021/12/06 04:10:26;;;;;;;39.83;19.70;;;;;;;-144.19;98.78;77807.69;5024290;28;20152;-87
2021/12/06 04:13:03;;;;;;;36.75;18.63;;;;;;;-144.19;98.84;77795.88;5022290;28;20140;-89
2021/12/06 04:15:30;;;;;;;35.35;18.25;;;;;;;-144.19;98.78;77788.00;5022584;28;20053;-88
2021/12/06 04:17:59;;;;;;;35.97;17.50;;;;;;;-144.19;98.67;77793.91;5019696;28;20049;-89
2021/12/06 04:20:26;;;;;;;34.92;17.63;;;;;;;-144.19;98.97;77789.97;5021511;28;20052;-89
2021/12/06 04:22:53;;;;;;;41.92;18.90;;;;;;;-144.19;99.07;77784.06;5021754;28;20056;-90
2021/12/06 04:25:21;;;;;;;40.40;19.85;;;;;;;-144.19;98.83;77786.03;5038274;28;20045;-88
2021/12/06 04:27:53;;;;;;;40.50;20.65;;;;;;;-144.19;98.71;77795.88;5039257;28;20132;-89
2021/12/06 04:30:22;;;;;;;37.30;17.85;;;;;;;-144.19;98.47;77813.59;5039469;28;20072;-89
2021/12/06 04:32:51;;;;;;;41.42;19.67;;;;;;;-144.19;98.33;77819.50;5038716;28;20056;-91
2021/12/06 04:35:17;;;;;;;39.80;18.58;;;;;;;-144.19;98.60;77827.38;5026905;28;20056;-89
2021/12/06 04:37:44;;;;;;;38.72;17.90;;;;;;;-144.19;98.69;77823.44;5000548;28;20096;-90
2021/12/06 04:40:11;;;;;;;35.78;18.50;;;;;;;-144.19;98.36;77833.28;5001613;28;20106;-90
2021/12/06 04:42:39;;;;;;;;;;;;;;;-144.19;98.59;77837.22;5001149;28;20046;-88
2021/12/06 04:45:06;;;;;;;38.15;18.63;;;;;;;-144.19;98.62;77835.25;5000521;28;19928;-89
2021/12/06 04:47:32;;;;;;;;;;;;;;;-144.19;98.48;77835.25;5000440;28;20141;-88
2021/12/06 04:49:59;;;;;;;35.80;17.75;;;;;;;-144.19;98.57;77829.34;5001673;28;20224;-88
2021/12/06 04:52:26;;;;;;;36.20;18.55;;;;;;;-144.19;98.30;77835.25;5000997;28;20045;-88
2021/12/06 04:54:54;;;;;;;;;;;;;;;-144.19;98.12;77841.19;5010196;28;20041;-90
2021/12/06 04:57:28;;;;;;;35.83;17.70;;;;;;;-144.19;98.10;77858.91;5020499;28;19921;-91
2021/12/06 05:00:00;;;;;;;34.95;16.88;;;;;;;-144.19;97.83;77847.09;5022237;28;20054;-89
2021/12/06 05:02:34;;;;;;;37.97;17.83;;;;;;;-144.19;97.94;77862.84;5023181;28;20052;-89
2021/12/06 05:05:07;;;;;;;38.63;18.52;;;;;;;-144.19;97.65;77860.88;5023555;28;20050;-89
2021/12/06 05:07:39;;;;;;;38.72;19.00;;;;;;;-144.19;97.77;77866.78;5022046;28;20045;-89
2021/12/06 05:10:08;;;;;;;47.13;20.67;;;;;;;-144.19;97.85;77866.78;5023416;28;20061;-91
2021/12/06 05:12:35;;;;;;;39.80;19.38;;;;;;;-144.19;97.89;77874.66;5023080;28;20050;-89
2021/12/06 05:15:04;;;;;;;41.17;18.52;;;;;;;-144.19;97.65;77868.75;5040890;28;20125;-89
2021/12/06 05:17:30;;;;;;;35.17;17.63;;;;;;;-144.19;97.76;77866.78;5023141;28;20060;-90
2021/12/06 05:19:56;;;;;;;36.97;18.17;;;;;;;-144.19;97.52;77868.75;5023499;28;20053;-90
2021/12/06 05:22:24;;;;;;;45.10;19.60;;;;;;;-144.19;97.45;77874.66;5022902;28;20052;-89
2021/12/06 05:24:52;;;;;;;38.25;18.67;;;;;;;-144.19;97.26;77882.53;5041024;28;20679;-90
2021/12/06 05:27:25;;;;;;;38.30;18.52;;;;;;;-144.19;97.08;77894.34;5021102;28;20057;-88
2021/12/06 05:29:56;;;;;;;31.92;16.80;;;;;;;-144.19;97.15;77896.31;5014042;28;20136;-90
2021/12/06 05:32:25;;;;;;;34.47;17.65;;;;;;;-144.19;97.21;77912.06;5015180;28;20538;-89
2021/12/06 05:35:01;;;;;;;37.70;19.92;;;;;;;-144.19;97.01;77914.03;5018041;28;20037;-88
2021/12/06 05:37:28;;;;;;;37.47;17.58;;;;;;;-144.19;97.23;77912.06;5026795;28;20053;-89
2021/12/06 05:39:55;;;;;;;43.72;19.92;;;;;;;-144.19;97.42;77910.09;5025212;28;20109;-88
2021/12/06 05:42:22;;;;;;;34.08;18.08;;;;;;;-144.19;97.22;77921.91;5039574;28;20057;-88
2021/12/06 05:44:49;;;;;;;41.03;18.83;;;;;;;-144.19;97.14;77923.88;5021706;28;20041;-90
2021/12/06 05:47:16;;;;;;;35.75;17.67;;;;;;;-144.19;97.23;77929.78;5019358;28;20046;-87
2021/12/06 05:49:42;;;;;;;38.20;18.75;;;;;;;-144.19;97.31;77925.84;5018018;28;20396;-87
2021/12/06 05:52:09;;;;;;;36.95;17.30;;;;;;;-144.19;97.04;77929.78;5019151;28;20074;-89
2021/12/06 05:54:36;;;;;;;41.30;18.40;;;;;;;-144.19;97.05;77925.84;5035008;28;20045;-91
2021/12/06 05:57:05;;;;;;;;;;;;;;;-144.19;96.91;77937.66;5032348;28;20499;-90
2021/12/06 05:59:31;;;;;;;37.40;18.85;;;;;;;-144.19;97.00;77937.66;5001387;28;19921;-90
2021/12/06 06:01:58;;;;;;;41.15;19.15;;;;;;;-144.19;97.15;77937.66;5018663;28;20423;-88
2021/12/06 06:04:27;;;;;;;37.15;18.70;;;;;;;-144.19;97.20;77939.63;5000770;28;20054;-91
2021/12/06 06:06:54;;;;;;;44.97;20.73;;;;;;;-144.19;97.18;77949.47;5000208;28;20075;-88
2021/12/06 06:09:21;;;;;;;40.75;19.48;;;;;;;-144.19;97.30;77947.50;4986545;28;20141;-89
2021/12/06 06:11:48;;;;;;;36.28;19.42;;;;;;;-144.19;97.24;77959.31;4982065;28;20054;-89
2021/12/06 06:14:15;;;;;;;40.65;20.77;;;;;;;-144.19;97.03;77971.13;5001128;28;20114;-89
2021/12/06 06:16:50;;;;;;;;;;;;;;;-144.19;97.08;77977.03;4997365;28;20138;-89
2021/12/06 06:19:22;;;;;;;44.45;20.95;;;;;;;-144.19;97.16;77979.00;4980312;28;20426;-88
2021/12/06 06:21:49;;;;;;;52.20;23.25;;;;;;;-144.19;97.50;77973.09;5009514;28;20049;-90
2021/12/06 06:24:15;;;;;;;;;;;;;;;-144.19;97.66;77977.03;5019668;28;20045;-91
2021/12/06 06:26:42;;;;;;;52.08;22.50;;;;;;;-144.19;97.56;77973.09;5018863;28;19929;-91
2021/12/06 06:29:11;;;;;;;52.25;23.70;;;;;;;-144.19;97.94;77973.09;5020267;28;20046;-88
2021/12/06 06:31:39;;;;;;;55.63;26.00;;;;;;;-144.19;97.73;77977.03;5020216;28;20054;-89
2021/12/06 06:34:06;;;;;;;51.92;24.88;;;;;;;-144.19;97.82;77977.03;5020587;28;20115;-90
2021/12/06 06:36:34;;;;;;;61.60;28.15;;;;;;;-144.19;98.42;77965.22;5020638;28;20099;-89
2021/12/06 06:39:02;;;;;;;;;;;;;;;-144.19;98.11;77977.03;5020138;28;20471;-89
2021/12/06 06:41:30;;;;;;;53.60;26.00;;;;;;;-144.19;98.19;77973.09;5022056;28;19928;-89
2021/12/06 06:43:58;;;;;;;53.95;25.42;;;;;;;-144.19;98.28;77973.09;5021158;28;20053;-90
2021/12/06 06:46:24;;;;;;;61.08;27.55;;;;;;;-144.19;98.37;77977.03;5037856;28;20060;-90
2021/12/06 06:48:51;;;;;;;62.25;27.73;;;;;;;-144.19;98.36;77975.06;5039150;28;20054;-89
2021/12/06 06:51:18;;;;;;;57.28;27.15;;;;;;;-144.19;98.34;77977.03;5040325;28;20049;-90
2021/12/06 06:53:44;;;;;;;54.35;25.40;;;;;;;-144.19;98.36;77984.91;5021616;28;20140;-89
2021/12/06 06:56:11;;;;;;;56.05;26.73;;;;;;;-144.19;98.53;77977.03;5003132;28;20056;-88
2021/12/06 06:58:37;;;;;;;54.88;26.58;;;;;;;-144.19;98.77;77979.00;5019652;28;20057;-89
2021/12/06 07:01:04;;;;;;;52.65;25.23;;;;;;;-144.19;98.36;77984.91;5019914;28;20049;-89
2021/12/06 07:03:31;;;;;;;51.47;24.92;;;;;;;-144.19;98.11;77980.97;5001259;28;20060;-88
2021/12/06 07:06:00;;;;;;;48.50;24.65;;;;;;;-144.19;97.85;77982.94;5002316;28;20060;-90
2021/12/06 07:08:27;;;;;;;48.90;23.67;;;;;;;-144.19;97.52;77988.84;5002934;28;20058;-89
2021/12/06 07:10:54;;;;;;;;;;;;;;;-144.19;97.71;77982.94;5000244;28;20054;-88
2021/12/06 07:13:22;;;;;;;43.63;21.35;;;;;;;-144.19;97.46;77992.78;4999317;28;19928;-92
2021/12/06 07:15:49;;;;;;;52.20;23.83;;;;;;;-144.19;97.25;77996.72;4999627;28;20050;-91
2021/12/06 07:18:16;;;;;;;;;;;;;;;-144.19;97.65;77992.78;5000540;28;20085;-89
2021/12/06 07:20:42;;;;;;;52.60;23.35;;;;;;;-144.19;97.51;77986.88;4999881;28;19988;-88
2021/12/06 07:23:09;;;;;;;56.13;22.77;;;;;;;-144.19;97.50;77986.88;5000501;28;20060;-89
2021/12/06 07:25:36;;;;;;;47.83;23.25;;;;;;;-144.19;97.90;77984.91;5016491;28;20046;-88
2021/12/06 07:28:05;;;;;;;48.35;22.10;;;;;;;-144.19;97.81;77986.88;4999149;28;20056;-89
2021/12/06 07:30:32;;;;;;;49.53;22.63;;;;;;;-144.19;97.64;77980.97;4999134;28;20053;-91
2021/12/06 07:32:59;;;;;;;51.50;22.33;;;;;;;-144.19;97.79;77973.09;5018505;28;20053;-90
2021/12/06 07:35:29;;;;;;;53.83;24.55;;;;;;;-144.19;97.50;77969.16;4999868;28;20042;-88
2021/12/06 07:37:56;;;;;;;49.45;23.98;;;;;;;-144.19;97.65;77975.06;5002277;28;20470;-90
2021/12/06 07:40:23;;;;;;;45.05;21.92;;;;;;;-144.19;97.51;77969.16;5003018;28;20057;-89
2021/12/06 07:42:50;;;;;;;50.17;22.80;;;;;;;-144.19;97.71;77965.22;5002060;28;20046;-90
2021/12/06 07:45:17;;;;;;;47.97;21.83;;;;;;;-144.19;98.02;77961.28;5003326;28;20050;-90
2021/12/06 07:47:43;;;;;;;47.42;21.67;;;;;;;-144.19;97.57;77975.06;5003380;28;20549;-89
2021/12/06 07:50:14;;;;;;;45.45;20.67;;;;;;;-144.19;97.28;77979.00;5004651;28;20052;-89
2021/12/06 07:52:47;;;;;;;44.15;19.17;;;;;;;-144.19;97.37;77969.16;5004476;28;20459;-90
2021/12/06 07:55:15;;;;;;;44.17;19.38;;;;;;;-144.19;96.88;77982.94;5013939;28;20045;-89
2021/12/06 07:57:42;;;;;;;37.03;18.13;;;;;;;-144.19;96.50;77984.91;5024059;28;20082;-89
2021/12/06 08:00:15;;;;;;;45.22;19.67;;;;;;;-144.19;96.34;77996.72;5023590;28;20530;-90
2021/12/06 08:02:42;;;;;;;42.38;20.38;;;;;;;-144.19;96.29;77990.81;5023295;28;20132;-89
2021/12/06 08:05:29;;;;;;;38.92;20.33;;;;;;;-144.19;96.45;77984.91;5039199;28;20073;-89
2021/12/06 08:08:06;;;;;;;43.90;21.63;;;;;;;-144.19;96.62;77973.09;5022520;28;20061;-89
2021/12/06 08:10:37;;;;;;;44.80;21.73;;;;;;;-144.19;96.37;77969.16;5040007;28;20057;-88
2021/12/06 08:13:05;;;;;;;47.35;21.27;;;;;;;-144.19;96.11;77971.13;5021399;28;20071;-91
2021/12/06 08:15:32;;;;;;;43.13;20.90;;;;;;;-144.19;95.56;77980.97;5039170;28;20052;-89
2021/12/06 08:17:58;;;;;;;43.17;19.80;;;;;;;-144.19;95.37;77979.00;5036979;28;20105;-90
2021/12/06 08:20:25;;;;;;;49.90;20.93;;;;;;;-144.19;95.27;77975.06;5020879;28;20418;-88
2021/12/06 08:22:52;;;;;;;45.92;20.67;;;;;;;-144.19;95.57;77975.06;5021253;28;20053;-89
2021/12/06 08:25:19;;;;;;;41.83;19.17;;;;;;;-144.19;95.50;77977.03;5022355;28;20045;-88
2021/12/06 08:27:45;;;;;;;;;;;;;;;-144.19;95.43;77969.16;5021679;28;20056;-88
2021/12/06 08:30:16;;;;;;;38.13;19.00;;;;;;;-144.19;95.13;77965.22;5023079;28;19920;-91
2021/12/06 08:32:42;;;;;;;41.65;19.63;;;;;;;-144.19;95.17;77961.28;5022623;28;20056;-90
2021/12/06 08:35:30;;;;;;;45.97;22.48;;;;;;;-144.19;94.71;77973.09;5010569;28;20236;-91
2021/12/06 08:37:58;;;;;;;42.67;20.13;;;;;;;-144.19;94.83;77965.22;5002177;28;20069;-91
2021/12/06 08:40:28;;;;;;;44.30;21.17;;;;;;;-144.19;94.93;77961.28;5003132;28;20049;-90
2021/12/06 08:42:55;;;;;;;39.88;21.17;;;;;;;-144.19;95.08;77965.22;5001666;28;20128;-88
2021/12/06 08:45:23;;;;;;;38.28;19.35;;;;;;;-144.19;94.85;77969.16;5003273;28;20500;-87
2021/12/06 08:47:49;;;;;;;41.03;19.60;;;;;;;-144.19;94.21;77986.88;5001420;28;20050;-87
2021/12/06 08:50:19;;;;;;;37.67;17.40;;;;;;;-144.19;94.67;77973.09;5003171;28;20053;-91
2021/12/06 08:52:46;;;;;;;43.63;18.90;;;;;;;-144.19;94.44;77969.16;5002663;28;20312;-90
2021/12/06 08:55:13;;;;;;;37.97;18.23;;;;;;;-144.19;94.28;77969.16;5013422;28;20046;-89
2021/12/06 08:57:42;;;;;;;42.08;18.40;;;;;;;-144.19;94.21;77973.09;5021565;28;20052;-89
2021/12/06 09:00:24;;;;;;;40.15;18.88;;;;;;;-144.19;94.15;77980.97;5022493;28;20049;-89
2021/12/06 09:02:51;;;;;;;35.80;17.50;;;;;;;-144.19;94.12;77982.94;5021425;28;20049;-90
2021/12/06 09:05:24;;;;;;;34.67;16.85;;;;;;;-144.19;93.58;77996.72;5024108;28;20060;-87
2021/12/06 09:07:51;;;;;;;37.75;17.58;;;;;;;-144.19;93.99;78000.66;5040237;28;20140;-88
2021/12/06 09:10:17;;;;;;;35.00;17.67;;;;;;;-144.19;94.45;77980.97;5020245;28;20450;-89
2021/12/06 09:12:44;;;;;;;43.28;19.17;;;;;;;-144.19;94.34;77977.03;5019498;28;20103;-88
2021/12/06 09:15:13;;;;;;;;;;;;;;;-144.19;94.30;77969.16;5021675;28;20045;-88
2021/12/06 09:17:47;;;;;;;35.55;18.70;;;;;;;-144.19;93.99;77986.88;5022793;28;19921;-88
2021/12/06 09:20:14;;;;;;;44.17;19.92;;;;;;;-144.19;94.19;77977.03;5037652;28;20562;-88
2021/12/06 09:22:42;;;;;;;36.28;19.00;;;;;;;-144.19;94.34;77969.16;5020312;28;20061;-87
2021/12/06 09:25:08;;;;;;;;;;;;;;;-144.19;93.92;77961.28;5020368;28;20049;-88
2021/12/06 09:27:36;;;;;;;35.22;18.25;;;;;;;-144.19;94.07;77965.22;5019200;28;19927;-89
2021/12/06 09:30:04;;;;;;;;;;;;;;;-144.19;94.27;77953.41;5037049;28;20049;-88
2021/12/06 09:32:30;;;;;;;39.13;19.02;;;;;;;-144.19;94.08;77945.53;5036949;28;19929;-89
2021/12/06 09:34:58;;;;;;;43.75;19.10;;;;;;;-144.19;93.97;77937.66;5020126;28;20495;-89
2021/12/06 09:37:26;;;;;;;32.42;17.98;;;;;;;-144.19;93.44;77957.34;5019320;28;20049;-89
2021/12/06 09:39:53;;;;;;;35.75;18.17;;;;;;;-144.19;93.24;77965.22;5037723;28;20670;-89
2021/12/06 09:42:21;;;;;;;38.63;17.55;;;;;;;-144.19;93.11;77949.47;5021519;28;20054;-89
2021/12/06 09:44:48;;;;;;;34.80;18.58;;;;;;;-144.19;93.05;77957.34;5020699;28;20487;-88
2021/12/06 09:47:15;;;;;;;37.17;17.10;;;;;;;-144.19;93.03;77965.22;5019850;28;20049;-88
2021/12/06 09:49:41;;;;;;;36.50;17.55;;;;;;;-144.19;92.95;77955.38;5019805;28;20049;-88
2021/12/06 09:52:08;;;;;;;34.55;16.25;;;;;;;-144.19;92.95;77965.22;5021579;28;20054;-89
2021/12/06 09:54:37;;;;;;;35.33;18.98;;;;;;;-144.19;93.06;77951.44;5015373;28;20137;-87
2021/12/06 09:57:06;;;;;;;38.55;17.42;;;;;;;-144.19;92.98;77957.34;5001105;28;20050;-88
2021/12/06 09:59:35;;;;;;;42.38;17.63;;;;;;;-144.19;93.18;77943.56;5000151;28;20057;-90
2021/12/06 10:02:21;;;;;;;33.05;17.20;;;;;;;-144.19;92.87;77941.59;4999616;28;20137;-89
2021/12/06 10:04:55;;;;;;;40.97;17.88;;;;;;;-144.19;92.87;77937.66;5016406;28;20493;-87
2021/12/06 10:07:32;;;;;;;35.42;17.02;;;;;;;-144.19;92.90;77929.78;4999709;28;20083;-89
2021/12/06 10:09:59;;;;;;;31.60;16.35;;;;;;;-144.19;92.66;77943.56;5000329;28;20140;-87
2021/12/06 10:12:27;;;;;;;34.83;16.45;;;;;;;-144.19;91.76;77925.84;5000585;28;20144;-89
2021/12/06 10:14:55;;;;;;;;;;;;;;;-144.19;91.99;77929.78;5001172;28;20054;-89
2021/12/06 10:17:22;;;;;;;36.17;16.33;;;;;;;-144.19;92.08;77921.91;5001149;28;19975;-90
2021/12/06 10:19:49;;;;;;;36.13;16.00;;;;;;;-144.19;91.79;77937.66;5000989;28;20049;-90
2021/12/06 10:22:16;;;;;;;34.20;16.15;;;;;;;-144.19;91.94;77931.75;5017673;28;20412;-89
2021/12/06 10:24:51;;;;;;;31.98;15.95;;;;;;;-144.19;91.64;77937.66;4999315;28;20045;-91
2021/12/06 10:27:17;;;;;;;31.23;15.63;;;;;;;-144.19;91.76;77921.91;4999341;28;20056;-89
2021/12/06 10:29:48;;;;;;;32.05;15.45;;;;;;;-144.19;91.28;77925.84;5000196;28;20523;-87
2021/12/06 10:32:21;;;;;;;32.22;16.05;;;;;;;-144.19;90.72;77910.09;5018197;28;20050;-92
2021/12/06 10:34:51;;;;;;;31.33;15.95;;;;;;;-144.19;91.01;77916.00;5006937;28;20045;-89
2021/12/06 10:37:42;;;;;;;32.72;17.30;;;;;;;-144.19;91.61;77933.72;5037301;28;20057;-88
2021/12/06 10:40:10;;;;;;;32.72;15.52;;;;;;;-144.19;91.78;77917.97;5037379;28;20057;-89
2021/12/06 10:42:40;;;;;;;38.10;15.88;;;;;;;-144.19;91.09;77906.16;5035281;28;20049;-91
2021/12/06 10:45:15;;;;;;;33.20;15.20;;;;;;;-144.19;90.36;77906.16;5015174;28;20056;-91
2021/12/06 10:47:42;;;;;;;32.03;16.40;;;;;;;-144.19;90.94;77894.34;4998331;28;20057;-89
2021/12/06 10:50:19;;;;;;;31.35;15.45;;;;;;;-144.19;89.94;77910.09;5016432;28;20060;-90
2021/12/06 10:52:54;;;;;;;30.50;15.40;;;;;;;-144.19;90.11;77892.38;5015173;28;20058;-89
2021/12/06 10:55:26;;;;;;;36.30;17.25;;;;;;;-144.19;90.00;77876.63;5028387;28;20045;-89
2021/12/06 10:57:58;;;;;;;31.50;15.75;;;;;;;-144.19;90.08;77866.78;5018984;28;20098;-89
2021/12/06 11:00:38;;;;;;;33.40;17.58;;;;;;;-144.19;89.96;77866.78;5018867;28;20096;-90
2021/12/06 11:03:27;;;;;;;39.75;18.65;;;;;;;-144.19;90.23;77845.13;5036320;28;20081;-90
2021/12/06 11:06:01;;;;;;;32.55;17.23;;;;;;;-144.19;89.26;77839.19;5010131;28;20077;-89
2021/12/06 11:08:29;;;;;;;35.05;17.02;;;;;;;-144.19;88.74;77839.19;4999945;28;20058;-88
2021/12/06 11:10:59;;;;;;;35.38;17.92;;;;;;;-144.19;88.73;77811.63;5000402;28;20069;-89
2021/12/06 11:13:30;;;;;;;34.00;18.05;;;;;;;-144.19;88.96;77793.91;5004424;28;20053;-91
2021/12/06 11:16:19;;;;;;;32.30;16.63;;;;;;;-144.19;87.83;77813.59;5005206;28;20050;-88
2021/12/06 11:18:54;;;;;;;37.88;18.63;;;;;;;-144.19;89.07;77803.75;5020444;28;20052;-90
2021/12/06 11:21:28;;;;;;;38.95;18.98;;;;;;;-144.19;89.19;77815.56;5005019;28;20054;-89
2021/12/06 11:24:11;;;;;;;30.83;16.40;;;;;;;-144.19;87.07;77803.75;5005039;28;20046;-89
2021/12/06 11:26:40;;;;;;;31.45;18.67;;;;;;;-144.19;85.69;77837.22;5006493;28;20140;-91
2021/12/06 11:29:15;;;;;;;31.63;18.05;;;;;;;-144.19;85.94;77829.34;5005374;28;20056;-89
2021/12/06 11:31:48;;;;;;;29.67;15.00;;;;;;;-144.19;85.64;77835.25;5023287;28;20585;-89
2021/12/06 11:34:15;;;;;;;37.33;16.55;;;;;;;-144.19;86.34;77817.53;5021486;28;20100;-88